createdAt,value
2023-04-29T00:01:03.608Z,6.13
2023-04-29T00:03:32.932Z,5.60
2023-04-29T00:06:00.482Z,6.28
2023-04-29T00:08:31.017Z,6.15
2023-04-29T00:11:00.048Z,5.30
2023-04-29T00:15:53.386Z,5.85
2023-04-29T00:18:22.662Z,5.90
2023-04-29T00:20:49.219Z,5.45
2023-04-29T00:23:15.849Z,4.97
2023-04-29T00:25:42.415Z,5.60
2023-04-29T00:28:09.008Z,4.82
2023-04-29T00:30:38.163Z,5.18
2023-04-29T00:33:07.379Z,5.20
2023-04-29T00:35:34.681Z,5.00
2023-04-29T00:38:01.329Z,4.72
2023-04-29T00:40:29.156Z,4.68
2023-04-29T00:42:55.808Z,5.05
2023-04-29T00:45:22.380Z,5.47
2023-04-29T00:47:49.007Z,4.57
2023-04-29T00:50:19.164Z,4.90
2023-04-29T00:52:46.342Z,4.78
2023-04-29T00:55:15.610Z,4.32
2023-04-29T00:57:42.695Z,3.95
2023-04-29T01:00:15.703Z,4.40
2023-04-29T01:02:44.762Z,4.53
2023-04-29T01:05:11.663Z,4.57
2023-04-29T01:07:48.895Z,4.88
2023-04-29T01:10:15.695Z,4.93
2023-04-29T01:13:00.705Z,4.28
2023-04-29T01:15:37.266Z,4.38
2023-04-29T01:18:19.520Z,4.82
2023-04-29T01:20:49.438Z,4.03
2023-04-29T01:23:18.392Z,4.75
2023-04-29T01:25:49.008Z,3.75
2023-04-29T01:28:30.348Z,4.68
2023-04-29T01:33:44.555Z,3.72
2023-04-29T01:36:11.110Z,3.88
2023-04-29T01:38:44.141Z,3.80
2023-04-29T01:41:32.588Z,3.70
2023-04-29T01:44:08.104Z,3.95
2023-04-29T01:46:37.964Z,4.15
2023-04-29T01:49:04.573Z,3.97
2023-04-29T01:51:31.795Z,3.92
2023-04-29T01:53:59.083Z,4.85
2023-04-29T01:56:28.063Z,4.28
2023-04-29T02:01:21.216Z,4.10
2023-04-29T02:03:47.940Z,4.18
2023-04-29T02:06:14.664Z,3.90
2023-04-29T02:08:41.428Z,4.45
2023-04-29T02:11:08.044Z,4.22
2023-04-29T02:13:36.975Z,3.10
2023-04-29T02:16:15.310Z,3.30
2023-04-29T02:18:42.320Z,3.50
2023-04-29T02:21:08.924Z,3.38
2023-04-29T02:23:38.747Z,3.58
2023-04-29T02:26:09.392Z,3.28
2023-04-29T02:28:36.354Z,3.00
2023-04-29T02:31:03.185Z,3.15
2023-04-29T02:33:35.712Z,3.13
2023-04-29T02:36:02.317Z,2.95
2023-04-29T02:38:31.370Z,2.78
2023-04-29T02:43:30.950Z,2.80
2023-04-29T02:45:58.060Z,2.95
2023-04-29T02:48:24.661Z,3.17
2023-04-29T02:50:51.766Z,3.08
2023-04-29T02:53:21.091Z,3.20
2023-04-29T02:55:48.385Z,2.53
2023-04-29T02:58:14.985Z,2.78
2023-04-29T03:00:42.205Z,3.35
2023-04-29T03:03:09.465Z,3.03
2023-04-29T03:05:38.597Z,2.72
2023-04-29T03:08:08.095Z,2.78
2023-04-29T03:10:34.708Z,3.30
2023-04-29T03:13:01.810Z,3.25
2023-04-29T03:15:28.606Z,3.22
2023-04-29T03:17:55.828Z,3.88
2023-04-29T03:20:27.440Z,3.15
2023-04-29T03:22:54.142Z,3.63
2023-04-29T03:25:20.828Z,2.78
2023-04-29T03:27:47.860Z,2.90
2023-04-29T03:30:14.481Z,2.97
2023-04-29T03:32:41.288Z,2.90
2023-04-29T03:35:13.536Z,2.97
2023-04-29T03:37:44.491Z,3.42
2023-04-29T03:40:12.364Z,3.80
2023-04-29T03:42:41.299Z,2.72
2023-04-29T03:45:08.563Z,2.88
2023-04-29T03:47:36.126Z,3.20
2023-04-29T03:50:02.938Z,2.80
2023-04-29T03:52:29.680Z,2.78
2023-04-29T03:55:01.146Z,3.05
2023-04-29T03:57:27.685Z,3.25
2023-04-29T03:59:56.637Z,2.78
2023-04-29T04:02:23.508Z,3.00
2023-04-29T04:04:50.419Z,3.15
2023-04-29T04:07:21.909Z,2.75
2023-04-29T04:09:48.511Z,3.25
2023-04-29T04:12:15.265Z,2.90
2023-04-29T04:14:44.175Z,3.75
2023-04-29T04:17:11.848Z,3.35
2023-04-29T04:19:40.832Z,3.10
2023-04-29T04:22:07.996Z,3.10
2023-04-29T04:24:34.606Z,3.42
2023-04-29T04:27:01.923Z,3.33
2023-04-29T04:29:28.697Z,3.58
2023-04-29T04:31:55.826Z,3.22
2023-04-29T04:34:22.561Z,3.58
2023-04-29T04:36:49.240Z,3.22
2023-04-29T04:39:18.184Z,3.60
2023-04-29T04:41:45.238Z,3.28
2023-04-29T04:44:14.430Z,3.60
2023-04-29T04:46:43.489Z,3.28
2023-04-29T04:51:39.104Z,2.95
2023-04-29T04:54:05.791Z,3.45
2023-04-29T04:56:32.642Z,2.88
2023-04-29T04:59:01.772Z,3.50
2023-04-29T05:01:28.654Z,3.70
2023-04-29T05:03:55.759Z,3.22
2023-04-29T05:06:22.612Z,3.30
2023-04-29T05:08:49.252Z,3.08
2023-04-29T05:11:20.278Z,3.38
2023-04-29T05:13:47.197Z,3.53
2023-04-29T05:16:14.136Z,3.42
2023-04-29T05:18:40.953Z,3.28
2023-04-29T05:21:07.713Z,3.72
2023-04-29T05:23:34.270Z,3.33
2023-04-29T05:26:00.922Z,3.50
2023-04-29T05:28:30.533Z,3.35
2023-04-29T05:30:57.385Z,3.70
2023-04-29T05:33:24.266Z,3.90
2023-04-29T05:35:53.161Z,3.30
2023-04-29T05:38:22.097Z,3.75
2023-04-29T05:40:53.397Z,3.85
2023-04-29T05:43:24.821Z,3.70
2023-04-29T05:45:53.825Z,4.30
2023-04-29T05:50:48.317Z,3.80
2023-04-29T05:53:17.256Z,3.38
2023-04-29T05:55:45.252Z,3.78
2023-04-29T05:58:17.065Z,3.55
2023-04-29T06:00:44.224Z,3.30
2023-04-29T06:03:12.263Z,3.50
2023-04-29T06:05:39.635Z,3.60
2023-04-29T06:08:06.746Z,4.00
2023-04-29T06:10:34.084Z,4.15
2023-04-29T06:13:01.222Z,3.67
2023-04-29T06:15:28.511Z,4.10
2023-04-29T06:18:00.030Z,3.83
2023-04-29T06:20:27.264Z,3.72
2023-04-29T06:22:54.248Z,4.05
2023-04-29T06:25:23.056Z,4.18
2023-04-29T06:27:50.602Z,3.92
2023-04-29T06:30:19.371Z,4.10
2023-04-29T06:32:48.556Z,3.63
2023-04-29T06:35:15.381Z,4.28
2023-04-29T06:37:41.953Z,3.58
2023-04-29T06:40:11.890Z,4.20
2023-04-29T06:42:41.174Z,4.43
2023-04-29T06:45:08.271Z,4.20
2023-04-29T06:47:34.926Z,3.50
2023-04-29T06:50:02.239Z,3.92
2023-04-29T06:52:33.749Z,4.05
2023-04-29T06:55:02.697Z,3.42
2023-04-29T07:00:00.943Z,3.78
2023-04-29T07:02:27.574Z,4.60
2023-04-29T07:04:56.601Z,4.45
2023-04-29T07:09:53.751Z,5.15
2023-04-29T07:12:23.198Z,4.93
2023-04-29T07:14:49.844Z,4.88
2023-04-29T07:17:25.604Z,4.65
2023-04-29T07:19:53.566Z,4.65
2023-04-29T07:22:20.345Z,3.92
2023-04-29T07:24:46.982Z,3.90
2023-04-29T07:27:16.403Z,3.75
2023-04-29T07:29:45.789Z,4.07
2023-04-29T07:32:15.956Z,3.60
2023-04-29T07:34:42.936Z,3.42
2023-04-29T07:37:09.861Z,3.85
2023-04-29T07:39:39.029Z,3.17
2023-04-29T07:42:08.156Z,3.67
2023-04-29T07:44:34.793Z,3.50
2023-04-29T07:47:01.534Z,3.30
2023-04-29T07:49:28.291Z,3.83
2023-04-29T07:51:57.586Z,3.65
2023-04-29T07:54:24.259Z,3.50
2023-04-29T07:56:50.863Z,3.63
2023-04-29T07:59:22.262Z,3.15
2023-04-29T08:01:52.236Z,3.83
2023-04-29T08:04:19.393Z,3.60
2023-04-29T08:06:49.014Z,3.47
2023-04-29T08:09:16.367Z,3.15
2023-04-29T08:11:43.852Z,3.53
2023-04-29T08:14:10.833Z,3.08
2023-04-29T08:16:37.670Z,3.80
2023-04-29T08:19:06.986Z,3.42
2023-04-29T08:21:34.863Z,3.63
2023-04-29T08:24:04.253Z,3.92
2023-04-29T08:26:36.502Z,3.75
2023-04-29T08:29:05.594Z,3.30
2023-04-29T08:31:32.234Z,3.63
2023-04-29T08:34:01.119Z,3.85
2023-04-29T08:36:28.708Z,3.95
2023-04-29T08:38:58.161Z,3.55
2023-04-29T08:41:25.577Z,3.78
2023-04-29T08:43:52.249Z,3.60
2023-04-29T08:46:26.120Z,3.65
2023-04-29T08:48:53.348Z,3.90
2023-04-29T08:51:19.987Z,3.40
2023-04-29T08:53:46.695Z,3.58
2023-04-29T08:56:20.653Z,3.88
2023-04-29T08:58:58.354Z,3.78
2023-04-29T09:01:29.662Z,3.42
2023-04-29T09:04:02.419Z,3.92
2023-04-29T09:06:30.785Z,3.80
2023-04-29T09:09:03.271Z,3.60
2023-04-29T09:11:38.306Z,3.65
2023-04-29T09:14:08.279Z,4.10
2023-04-29T09:16:37.504Z,4.07
2023-04-29T09:19:06.562Z,3.53
2023-04-29T09:24:01.733Z,3.97
2023-04-29T09:26:41.154Z,3.40
2023-04-29T09:29:16.469Z,4.13
2023-04-29T09:31:43.631Z,3.78
2023-04-29T09:34:14.441Z,3.75
2023-04-29T09:36:51.090Z,3.45
2023-04-29T09:39:25.013Z,3.47
2023-04-29T09:41:57.256Z,3.22
2023-04-29T09:44:32.926Z,3.80
2023-04-29T09:47:08.962Z,3.45
2023-04-29T09:49:41.963Z,3.08
2023-04-29T09:52:14.046Z,3.95
2023-04-29T09:54:42.505Z,3.30
2023-04-29T09:57:13.914Z,3.20
2023-04-29T09:59:48.595Z,3.58
2023-04-29T10:02:18.427Z,3.65
2023-04-29T10:04:47.454Z,2.92
2023-04-29T10:09:45.499Z,3.65
2023-04-29T10:12:19.962Z,3.03
2023-04-29T10:15:04.934Z,3.40
2023-04-29T10:17:45.115Z,3.65
2023-04-29T10:20:16.467Z,3.55
2023-04-29T10:22:49.075Z,3.50
2023-04-29T10:25:18.378Z,3.42
2023-04-29T10:27:46.052Z,2.88
2023-04-29T10:30:17.788Z,3.35
2023-04-29T10:35:17.846Z,3.53
2023-04-29T10:37:46.160Z,2.85
2023-04-29T10:40:18.791Z,3.13
2023-04-29T10:42:49.680Z,3.03
2023-04-29T10:45:37.709Z,2.90
2023-04-29T10:48:08.761Z,3.53
2023-04-29T10:50:42.560Z,2.95
2023-04-29T10:53:11.546Z,3.05
2023-04-29T10:55:39.214Z,2.72
2023-04-29T10:58:06.586Z,2.17
2023-04-29T11:00:38.810Z,2.70
2023-04-29T11:03:06.559Z,2.50
2023-04-29T11:05:39.709Z,3.75
2023-04-29T11:08:24.294Z,3.05
2023-04-29T11:11:02.595Z,2.80
2023-04-29T11:13:30.759Z,2.53
2023-04-29T11:16:10.964Z,2.60
2023-04-29T11:19:06.705Z,2.83
2023-04-29T11:21:37.104Z,2.42
2023-04-29T11:24:06.426Z,2.50
2023-04-29T11:29:19.967Z,2.40
2023-04-29T11:31:46.937Z,2.63
2023-04-29T11:34:13.546Z,2.63
2023-04-29T11:36:40.255Z,2.60
2023-04-29T11:39:06.929Z,3.05
2023-04-29T11:41:35.814Z,2.38
2023-04-29T11:44:03.641Z,2.60
2023-04-29T11:46:34.288Z,2.85
2023-04-29T11:49:02.400Z,2.22
2023-04-29T11:51:29.331Z,2.65
2023-04-29T11:53:59.472Z,2.65
2023-04-29T11:56:26.155Z,3.05
2023-04-29T11:58:59.139Z,2.35
2023-04-29T12:01:27.217Z,3.53
2023-04-29T12:04:00.121Z,2.75
2023-04-29T12:06:32.613Z,2.60
2023-04-29T12:09:04.626Z,2.60
2023-04-29T12:11:31.280Z,3.17
2023-04-29T12:13:58.364Z,2.63
2023-04-29T12:16:25.893Z,2.70
2023-04-29T12:18:53.385Z,2.65
2023-04-29T12:21:22.809Z,2.88
2023-04-29T12:23:51.719Z,2.53
2023-04-29T12:26:23.220Z,2.88
2023-04-29T12:28:55.081Z,3.47
2023-04-29T12:31:21.827Z,2.95
2023-04-29T12:33:53.984Z,3.17
2023-04-29T12:36:20.744Z,2.40
2023-04-29T12:38:50.582Z,2.50
2023-04-29T12:41:17.490Z,2.45
2023-04-29T12:43:44.595Z,2.53
2023-04-29T12:46:15.259Z,2.70
2023-04-29T12:48:43.632Z,2.38
2023-04-29T12:51:11.464Z,2.97
2023-04-29T12:53:39.115Z,3.00
2023-04-29T12:56:08.447Z,2.92
2023-04-29T12:58:38.778Z,3.05
2023-04-29T13:01:07.771Z,2.50
2023-04-29T13:03:37.221Z,2.53
2023-04-29T13:06:04.258Z,2.40
2023-04-29T13:08:33.552Z,2.50
2023-04-29T13:11:00.602Z,3.28
2023-04-29T13:13:30.327Z,2.20
2023-04-29T13:15:57.227Z,2.63
2023-04-29T13:18:26.452Z,2.30
2023-04-29T13:20:55.307Z,2.60
2023-04-29T13:25:51.078Z,2.40
2023-04-29T13:28:20.358Z,2.22
2023-04-29T13:30:49.249Z,2.40
2023-04-29T13:33:15.839Z,2.78
2023-04-29T13:35:42.563Z,2.70
2023-04-29T13:38:09.248Z,2.50
2023-04-29T13:40:39.330Z,2.45
2023-04-29T13:43:09.822Z,2.60
2023-04-29T13:45:42.862Z,2.20
2023-04-29T13:48:34.897Z,2.25
2023-04-29T13:58:58.277Z,2.20
2023-04-29T14:01:44.095Z,2.42
2023-04-29T14:04:03.762Z,2.08
2023-04-29T14:06:35.729Z,2.30
2023-04-29T14:09:04.687Z,2.35
2023-04-29T14:11:32.182Z,2.30
2023-04-29T14:13:58.959Z,2.60
2023-04-29T14:16:25.891Z,2.38
2023-04-29T14:18:52.620Z,2.60
2023-04-29T14:21:22.744Z,2.40
2023-04-29T14:23:50.492Z,2.03
2023-04-29T14:26:27.878Z,2.80
2023-04-29T14:28:59.665Z,2.33
2023-04-29T14:31:31.193Z,2.10
2023-04-29T14:34:00.592Z,2.70
2023-04-29T14:36:28.245Z,2.33
2023-04-29T14:38:57.182Z,2.22
2023-04-29T14:41:23.865Z,2.45
2023-04-29T14:43:50.740Z,2.40
2023-04-29T14:46:22.202Z,1.85
2023-04-29T14:48:51.241Z,3.35
2023-04-29T14:51:20.052Z,2.22
2023-04-29T14:56:18.756Z,2.70
2023-04-29T14:58:47.437Z,2.13
2023-04-29T15:01:14.137Z,2.15
2023-04-29T15:03:44.313Z,1.88
2023-04-29T15:06:12.060Z,2.05
2023-04-29T15:08:38.640Z,2.08
2023-04-29T15:11:05.941Z,2.35
2023-04-29T15:13:32.705Z,2.50
2023-04-29T15:16:02.051Z,2.47
2023-04-29T15:18:31.308Z,2.40
2023-04-29T15:21:00.494Z,2.20
2023-04-29T15:23:27.072Z,2.35
2023-04-29T15:25:53.658Z,2.47
2023-04-29T15:28:25.951Z,2.40
2023-04-29T15:30:52.540Z,3.55
2023-04-29T15:33:19.219Z,2.50
2023-04-29T15:35:46.337Z,2.22
2023-04-29T15:38:15.493Z,2.58
2023-04-29T15:40:45.081Z,2.92
2023-04-29T15:43:12.020Z,2.50
2023-04-29T15:45:38.614Z,3.08
2023-04-29T15:48:08.835Z,2.72
2023-04-29T15:50:35.435Z,2.50
2023-04-29T15:53:02.213Z,3.30
2023-04-29T15:55:29.220Z,2.25
2023-04-29T15:57:55.926Z,2.47
2023-04-29T16:00:25.056Z,2.80
2023-04-29T16:02:54.578Z,2.95
2023-04-29T16:05:25.920Z,3.10
2023-04-29T16:07:52.681Z,2.60
2023-04-29T16:10:21.483Z,2.63
2023-04-29T16:15:18.779Z,2.63
2023-04-29T16:17:45.619Z,2.60
2023-04-29T16:20:14.659Z,2.53
2023-04-29T16:22:43.731Z,2.50
2023-04-29T16:25:11.458Z,4.30
2023-04-29T16:27:38.256Z,3.88
2023-04-29T16:30:08.385Z,3.05
2023-04-29T16:32:38.032Z,2.75
2023-04-29T16:35:05.138Z,2.58
2023-04-29T16:37:32.286Z,2.30
2023-04-29T16:39:58.933Z,2.20
2023-04-29T16:42:28.747Z,2.78
2023-04-29T16:44:55.540Z,2.95
2023-04-29T16:47:25.290Z,3.10
2023-04-29T16:49:52.392Z,2.60
2023-04-29T16:52:22.390Z,2.40
2023-04-29T16:54:48.970Z,2.47
2023-04-29T16:57:15.775Z,2.20
2023-04-29T16:59:42.534Z,2.28
2023-04-29T17:02:09.555Z,2.90
2023-04-29T17:04:36.293Z,2.72
2023-04-29T17:07:03.483Z,2.97
2023-04-29T17:09:31.242Z,2.83
2023-04-29T17:12:00.437Z,2.50
2023-04-29T17:14:29.541Z,2.67
2023-04-29T17:16:56.638Z,2.97
2023-04-29T17:19:23.189Z,2.53
2023-04-29T17:21:50.224Z,2.70
2023-04-29T17:24:17.019Z,2.42
2023-04-29T17:26:46.117Z,3.30
2023-04-29T17:29:17.419Z,2.53
2023-04-29T17:31:54.146Z,2.70
2023-04-29T17:34:24.097Z,2.65
2023-04-29T17:36:51.541Z,2.92
2023-04-29T17:39:20.952Z,2.75
2023-04-29T17:41:47.689Z,2.80
2023-04-29T17:44:14.712Z,2.70
2023-04-29T17:46:42.910Z,2.50
2023-04-29T17:49:14.297Z,2.75
2023-04-29T17:51:41.017Z,3.05
2023-04-29T17:54:08.777Z,2.55
2023-04-29T17:56:38.259Z,2.40
2023-04-29T17:59:05.602Z,2.70
2023-04-29T18:01:38.247Z,2.55
2023-04-29T18:04:07.628Z,2.75
2023-04-29T18:06:35.212Z,2.90
2023-04-29T18:09:06.788Z,2.78
2023-04-29T18:11:33.618Z,2.90
2023-04-29T18:14:00.280Z,2.97
2023-04-29T18:16:29.929Z,3.00
2023-04-29T18:18:57.099Z,2.97
2023-04-29T18:21:25.574Z,2.97
2023-04-29T18:23:52.206Z,3.05
2023-04-29T18:26:19.519Z,2.90
2023-04-29T18:28:47.390Z,2.78
2023-04-29T18:31:20.098Z,2.80
2023-04-29T18:33:51.498Z,2.97
2023-04-29T18:36:23.961Z,2.90
2023-04-29T18:38:52.906Z,2.85
2023-04-29T18:43:53.490Z,2.95
2023-04-29T18:46:20.253Z,3.63
2023-04-29T18:48:49.389Z,3.58
2023-04-29T18:51:16.132Z,3.38
2023-04-29T18:53:45.299Z,3.03
2023-04-29T18:56:14.355Z,3.47
2023-04-29T18:58:45.812Z,3.03
2023-04-29T19:01:15.012Z,3.10
2023-04-29T19:03:42.000Z,3.38
2023-04-29T19:06:11.091Z,3.13
2023-04-29T19:08:37.731Z,3.50
2023-04-29T19:11:06.741Z,3.25
2023-04-29T19:13:38.235Z,3.08
2023-04-29T19:16:05.118Z,3.72
2023-04-29T19:18:31.856Z,3.10
2023-04-29T19:20:58.591Z,3.17
2023-04-29T19:23:25.269Z,3.53
2023-04-29T19:25:51.916Z,3.50
2023-04-29T19:28:19.367Z,3.45
2023-04-29T19:30:45.986Z,4.22
2023-04-29T19:33:12.699Z,3.05
2023-04-29T19:35:39.303Z,3.67
2023-04-29T19:38:05.982Z,3.30
2023-04-29T19:40:32.599Z,3.25
2023-04-29T19:42:59.194Z,3.30
2023-04-29T19:45:26.457Z,3.05
2023-04-29T19:47:55.682Z,3.33
2023-04-29T19:50:22.940Z,3.13
2023-04-29T19:52:54.560Z,2.80
2023-04-29T19:55:23.602Z,3.25
2023-04-29T19:57:52.723Z,3.97
2023-04-29T20:00:19.576Z,3.67
2023-04-29T20:02:52.385Z,3.25
2023-04-29T20:05:20.187Z,3.72
2023-04-29T20:08:20.460Z,2.90
2023-04-29T20:10:48.200Z,3.13
2023-04-29T20:13:15.770Z,3.10
2023-04-29T20:15:42.458Z,3.67
2023-04-29T20:18:09.084Z,2.78
2023-04-29T20:20:38.010Z,3.75
2023-04-29T20:25:31.392Z,3.42
2023-04-29T20:27:58.042Z,3.05
2023-04-29T20:30:27.377Z,3.50
2023-04-29T20:32:56.495Z,3.60
2023-04-29T20:35:25.528Z,3.38
2023-04-29T20:37:52.198Z,3.63
2023-04-29T20:40:19.270Z,3.42
2023-04-29T20:42:48.383Z,3.38
2023-04-29T20:45:15.092Z,3.00
2023-04-29T20:47:42.092Z,3.72
2023-04-29T20:50:12.216Z,3.78
2023-04-29T20:52:38.874Z,3.40
2023-04-29T20:55:10.409Z,3.35
2023-04-29T20:57:37.469Z,3.40
2023-04-29T21:00:07.422Z,3.70
2023-04-29T21:02:36.585Z,3.50
2023-04-29T21:05:05.696Z,3.35
2023-04-29T21:07:34.625Z,3.47
2023-04-29T21:10:01.223Z,3.30
2023-04-29T21:12:30.911Z,4.22
2023-04-29T21:14:57.476Z,3.70
2023-04-29T21:17:26.343Z,3.72
2023-04-29T21:19:53.069Z,3.60
2023-04-29T21:22:19.842Z,2.85
2023-04-29T21:24:50.021Z,3.42
2023-04-29T21:27:17.245Z,3.35
2023-04-29T21:29:43.782Z,3.33
2023-04-29T21:32:10.410Z,3.28
2023-04-29T21:34:39.303Z,3.30
2023-04-29T21:37:05.969Z,3.38
2023-04-29T21:39:32.749Z,3.60
2023-04-29T21:42:05.215Z,3.78
2023-04-29T21:44:32.613Z,3.60
2023-04-29T21:47:00.830Z,2.95
2023-04-29T21:49:30.792Z,4.07
2023-04-29T21:51:59.625Z,3.10
2023-04-29T21:54:26.188Z,3.63
2023-04-29T21:56:52.797Z,3.45
2023-04-29T21:59:19.753Z,3.15
2023-04-29T22:01:49.080Z,3.30
2023-04-29T22:04:19.076Z,3.50
2023-04-29T22:06:47.917Z,3.42
2023-04-29T22:09:14.714Z,3.83
2023-04-29T22:11:41.553Z,3.55
2023-04-29T22:14:10.658Z,3.40
2023-04-29T22:16:39.886Z,3.53
2023-04-29T22:19:07.234Z,3.67
2023-04-29T22:21:38.195Z,3.45
2023-04-29T22:24:05.208Z,3.53
2023-04-29T22:26:31.856Z,3.50
2023-04-29T22:29:01.791Z,3.30
2023-04-29T22:31:28.482Z,3.55
2023-04-29T22:33:57.330Z,4.20
2023-04-29T22:36:24.049Z,3.83
2023-04-29T22:38:50.606Z,3.67
2023-04-29T22:41:19.804Z,3.65
2023-04-29T22:43:46.499Z,3.60
2023-04-29T22:46:16.044Z,3.90
2023-04-29T22:48:42.638Z,3.22
2023-04-29T22:51:11.540Z,3.92
2023-04-29T22:56:09.970Z,3.53
2023-04-29T22:58:39.584Z,4.00
2023-04-29T23:01:06.218Z,3.30
2023-04-29T23:03:38.997Z,3.50
2023-04-29T23:06:06.960Z,3.53
2023-04-29T23:08:33.746Z,4.20
2023-04-29T23:11:00.350Z,3.45
2023-04-29T23:13:29.916Z,3.90
2023-04-29T23:15:57.745Z,3.45
2023-04-29T23:18:27.307Z,3.15
2023-04-29T23:20:54.224Z,3.40
2023-04-29T23:23:23.522Z,3.53
2023-04-29T23:25:50.340Z,3.60
2023-04-29T23:28:21.927Z,3.22
2023-04-29T23:30:51.135Z,3.83
2023-04-29T23:33:17.845Z,3.25
2023-04-29T23:35:56.146Z,3.45
2023-04-29T23:38:22.858Z,3.53
2023-04-29T23:40:51.979Z,3.70
2023-04-29T23:43:19.497Z,3.65
2023-04-29T23:45:46.271Z,3.80
2023-04-29T23:48:13.640Z,3.42
2023-04-29T23:50:42.730Z,3.55
2023-04-29T23:53:09.372Z,4.45
2023-04-29T23:55:36.007Z,3.97
2023-04-29T23:58:02.588Z,3.50
